sensor_id;sensor_type;location;lat;lon;timestamp;P1;durP1;ratioP1;P2;durP2;ratioP2
51854;SDS011;37895;53.240;6.572;2023-05-27T00:00:56;18.48;;;7.05;;
51854;SDS011;37895;53.240;6.572;2023-05-27T00:03:21;19.58;;;7.63;;
51854;SDS011;37895;53.240;6.572;2023-05-27T00:05:47;17.67;;;6.93;;
51854;SDS011;37895;53.240;6.572;2023-05-27T00:08:13;15.98;;;7.10;;
51854;SDS011;37895;53.240;6.572;2023-05-27T00:10:38;20.57;;;7.33;;
51854;SDS011;37895;53.240;6.572;2023-05-27T00:13:04;17.55;;;7.10;;
51854;SDS011;37895;53.240;6.572;2023-05-27T00:15:29;18.60;;;7.18;;
51854;SDS011;37895;53.240;6.572;2023-05-27T00:17:57;19.10;;;6.90;;
51854;SDS011;37895;53.240;6.572;2023-05-27T00:20:25;22.10;;;8.13;;
51854;SDS011;37895;53.240;6.572;2023-05-27T00:22:51;14.73;;;7.50;;
51854;SDS011;37895;53.240;6.572;2023-05-27T00:25:17;18.25;;;7.80;;
51854;SDS011;37895;53.240;6.572;2023-05-27T00:27:45;22.95;;;7.93;;
51854;SDS011;37895;53.240;6.572;2023-05-27T00:30:12;23.55;;;7.63;;
51854;SDS011;37895;53.240;6.572;2023-05-27T00:32:38;18.40;;;7.47;;
51854;SDS011;37895;53.240;6.572;2023-05-27T00:35:04;18.05;;;7.35;;
51854;SDS011;37895;53.240;6.572;2023-05-27T00:39:56;26.48;;;8.48;;
51854;SDS011;37895;53.240;6.572;2023-05-27T00:42:21;22.13;;;8.82;;
51854;SDS011;37895;53.240;6.572;2023-05-27T00:44:48;19.75;;;8.18;;
51854;SDS011;37895;53.240;6.572;2023-05-27T00:47:14;17.77;;;7.22;;
51854;SDS011;37895;53.240;6.572;2023-05-27T00:49:44;16.75;;;6.93;;
51854;SDS011;37895;53.240;6.572;2023-05-27T00:52:10;23.85;;;9.02;;
51854;SDS011;37895;53.240;6.572;2023-05-27T00:54:38;19.80;;;7.63;;
51854;SDS011;37895;53.240;6.572;2023-05-27T00:57:05;20.33;;;7.63;;
51854;SDS011;37895;53.240;6.572;2023-05-27T00:59:31;19.05;;;7.68;;
51854;SDS011;37895;53.240;6.572;2023-05-27T01:01:57;24.88;;;8.20;;
51854;SDS011;37895;53.240;6.572;2023-05-27T01:04:23;21.15;;;8.38;;
51854;SDS011;37895;53.240;6.572;2023-05-27T01:12:16;23.73;;;9.18;;
51854;SDS011;37895;53.240;6.572;2023-05-27T01:15:02;19.20;;;9.05;;
51854;SDS011;37895;53.240;6.572;2023-05-27T01:17:30;22.15;;;9.25;;
51854;SDS011;37895;53.240;6.572;2023-05-27T01:19:57;24.27;;;8.95;;
51854;SDS011;37895;53.240;6.572;2023-05-27T01:22:30;21.30;;;9.05;;
51854;SDS011;37895;53.240;6.572;2023-05-27T01:24:57;26.20;;;9.35;;
51854;SDS011;37895;53.240;6.572;2023-05-27T01:27:22;24.58;;;9.15;;
51854;SDS011;37895;53.240;6.572;2023-05-27T01:29:52;20.83;;;8.38;;
51854;SDS011;37895;53.240;6.572;2023-05-27T01:34:46;19.63;;;9.20;;
51854;SDS011;37895;53.240;6.572;2023-05-27T01:37:22;18.92;;;8.70;;
51854;SDS011;37895;53.240;6.572;2023-05-27T01:39:50;19.77;;;8.35;;
51854;SDS011;37895;53.240;6.572;2023-05-27T01:42:17;20.60;;;8.10;;
51854;SDS011;37895;53.240;6.572;2023-05-27T01:44:45;16.83;;;7.60;;
51854;SDS011;37895;53.240;6.572;2023-05-27T01:47:11;21.58;;;8.20;;
51854;SDS011;37895;53.240;6.572;2023-05-27T01:49:37;19.17;;;8.10;;
51854;SDS011;37895;53.240;6.572;2023-05-27T01:52:03;16.55;;;7.32;;
51854;SDS011;37895;53.240;6.572;2023-05-27T01:54:28;19.30;;;8.13;;
51854;SDS011;37895;53.240;6.572;2023-05-27T01:56:54;18.48;;;7.53;;
51854;SDS011;37895;53.240;6.572;2023-05-27T01:59:20;19.60;;;7.82;;
51854;SDS011;37895;53.240;6.572;2023-05-27T02:01:45;20.67;;;8.10;;
51854;SDS011;37895;53.240;6.572;2023-05-27T02:04:11;23.17;;;8.43;;
51854;SDS011;37895;53.240;6.572;2023-05-27T02:06:36;18.13;;;8.63;;
51854;SDS011;37895;53.240;6.572;2023-05-27T02:09:02;16.92;;;7.68;;
51854;SDS011;37895;53.240;6.572;2023-05-27T02:11:28;16.38;;;7.82;;
51854;SDS011;37895;53.240;6.572;2023-05-27T02:13:54;22.60;;;8.43;;
51854;SDS011;37895;53.240;6.572;2023-05-27T02:16:21;18.90;;;7.72;;
51854;SDS011;37895;53.240;6.572;2023-05-27T02:18:47;19.40;;;8.05;;
51854;SDS011;37895;53.240;6.572;2023-05-27T02:21:14;14.30;;;7.35;;
51854;SDS011;37895;53.240;6.572;2023-05-27T02:23:40;21.95;;;8.70;;
51854;SDS011;37895;53.240;6.572;2023-05-27T02:26:05;20.33;;;7.43;;
51854;SDS011;37895;53.240;6.572;2023-05-27T02:28:31;18.55;;;7.72;;
51854;SDS011;37895;53.240;6.572;2023-05-27T02:30:57;19.17;;;7.22;;
51854;SDS011;37895;53.240;6.572;2023-05-27T02:33:24;18.83;;;7.47;;
51854;SDS011;37895;53.240;6.572;2023-05-27T02:35:49;14.07;;;7.13;;
51854;SDS011;37895;53.240;6.572;2023-05-27T02:38:15;16.30;;;6.75;;
51854;SDS011;37895;53.240;6.572;2023-05-27T02:40:41;17.83;;;7.57;;
51854;SDS011;37895;53.240;6.572;2023-05-27T02:43:06;15.13;;;7.40;;
51854;SDS011;37895;53.240;6.572;2023-05-27T02:45:33;19.88;;;7.88;;
51854;SDS011;37895;53.240;6.572;2023-05-27T02:47:59;14.07;;;6.60;;
51854;SDS011;37895;53.240;6.572;2023-05-27T02:50:26;12.70;;;6.60;;
51854;SDS011;37895;53.240;6.572;2023-05-27T02:52:52;12.98;;;6.40;;
51854;SDS011;37895;53.240;6.572;2023-05-27T02:55:17;19.13;;;6.90;;
51854;SDS011;37895;53.240;6.572;2023-05-27T02:57:43;17.33;;;6.95;;
51854;SDS011;37895;53.240;6.572;2023-05-27T03:00:09;23.13;;;7.60;;
51854;SDS011;37895;53.240;6.572;2023-05-27T03:02:36;18.25;;;7.18;;
51854;SDS011;37895;53.240;6.572;2023-05-27T03:05:02;19.50;;;7.50;;
51854;SDS011;37895;53.240;6.572;2023-05-27T03:07:28;20.33;;;7.75;;
51854;SDS011;37895;53.240;6.572;2023-05-27T03:09:54;19.23;;;8.70;;
51854;SDS011;37895;53.240;6.572;2023-05-27T03:12:21;18.92;;;7.53;;
51854;SDS011;37895;53.240;6.572;2023-05-27T03:14:47;23.05;;;7.82;;
51854;SDS011;37895;53.240;6.572;2023-05-27T03:17:13;19.70;;;8.30;;
51854;SDS011;37895;53.240;6.572;2023-05-27T03:19:38;23.98;;;8.77;;
51854;SDS011;37895;53.240;6.572;2023-05-27T03:22:04;20.38;;;8.50;;
51854;SDS011;37895;53.240;6.572;2023-05-27T03:24:31;22.20;;;7.53;;
51854;SDS011;37895;53.240;6.572;2023-05-27T03:26:58;25.13;;;8.27;;
51854;SDS011;37895;53.240;6.572;2023-05-27T03:29:24;22.63;;;7.90;;
51854;SDS011;37895;53.240;6.572;2023-05-27T03:31:50;21.77;;;7.97;;
51854;SDS011;37895;53.240;6.572;2023-05-27T03:34:16;18.35;;;7.40;;
51854;SDS011;37895;53.240;6.572;2023-05-27T03:36:41;18.02;;;7.60;;
51854;SDS011;37895;53.240;6.572;2023-05-27T03:39:14;21.23;;;7.55;;
51854;SDS011;37895;53.240;6.572;2023-05-27T03:41:40;22.23;;;8.10;;
51854;SDS011;37895;53.240;6.572;2023-05-27T03:44:06;18.58;;;7.32;;
51854;SDS011;37895;53.240;6.572;2023-05-27T03:46:31;23.90;;;7.78;;
51854;SDS011;37895;53.240;6.572;2023-05-27T03:48:57;20.02;;;8.13;;
51854;SDS011;37895;53.240;6.572;2023-05-27T03:51:23;21.10;;;7.50;;
51854;SDS011;37895;53.240;6.572;2023-05-27T03:53:49;19.52;;;7.07;;
51854;SDS011;37895;53.240;6.572;2023-05-27T03:56:15;27.25;;;8.82;;
51854;SDS011;37895;53.240;6.572;2023-05-27T03:58:40;18.67;;;7.40;;
51854;SDS011;37895;53.240;6.572;2023-05-27T04:01:06;21.87;;;7.83;;
51854;SDS011;37895;53.240;6.572;2023-05-27T04:03:31;20.77;;;7.90;;
51854;SDS011;37895;53.240;6.572;2023-05-27T04:05:58;24.70;;;7.55;;
51854;SDS011;37895;53.240;6.572;2023-05-27T04:08:24;27.40;;;8.07;;
51854;SDS011;37895;53.240;6.572;2023-05-27T04:10:53;22.20;;;7.18;;
51854;SDS011;37895;53.240;6.572;2023-05-27T04:13:19;20.98;;;8.38;;
51854;SDS011;37895;53.240;6.572;2023-05-27T04:15:45;20.65;;;7.32;;
51854;SDS011;37895;53.240;6.572;2023-05-27T04:18:11;21.83;;;7.35;;
51854;SDS011;37895;53.240;6.572;2023-05-27T04:20:37;20.00;;;6.50;;
51854;SDS011;37895;53.240;6.572;2023-05-27T04:23:05;19.27;;;7.65;;
51854;SDS011;37895;53.240;6.572;2023-05-27T04:27:57;21.55;;;7.70;;
51854;SDS011;37895;53.240;6.572;2023-05-27T04:30:23;22.67;;;7.10;;
51854;SDS011;37895;53.240;6.572;2023-05-27T04:32:49;18.63;;;6.78;;
51854;SDS011;37895;53.240;6.572;2023-05-27T04:35:14;18.42;;;7.60;;
51854;SDS011;37895;53.240;6.572;2023-05-27T04:37:41;18.73;;;7.05;;
51854;SDS011;37895;53.240;6.572;2023-05-27T04:40:09;20.77;;;7.63;;
51854;SDS011;37895;53.240;6.572;2023-05-27T04:42:36;24.48;;;8.02;;
51854;SDS011;37895;53.240;6.572;2023-05-27T04:45:02;16.38;;;6.45;;
51854;SDS011;37895;53.240;6.572;2023-05-27T04:47:29;20.73;;;7.68;;
51854;SDS011;37895;53.240;6.572;2023-05-27T04:49:55;20.38;;;6.70;;
51854;SDS011;37895;53.240;6.572;2023-05-27T04:52:21;20.73;;;6.93;;
51854;SDS011;37895;53.240;6.572;2023-05-27T04:54:48;24.23;;;7.78;;
51854;SDS011;37895;53.240;6.572;2023-05-27T04:57:15;28.35;;;8.25;;
51854;SDS011;37895;53.240;6.572;2023-05-27T04:59:44;16.88;;;7.30;;
51854;SDS011;37895;53.240;6.572;2023-05-27T05:02:29;19.88;;;6.80;;
51854;SDS011;37895;53.240;6.572;2023-05-27T05:05:03;18.65;;;6.95;;
51854;SDS011;37895;53.240;6.572;2023-05-27T05:07:31;19.85;;;6.72;;
51854;SDS011;37895;53.240;6.572;2023-05-27T05:09:58;19.45;;;6.55;;
51854;SDS011;37895;53.240;6.572;2023-05-27T05:12:25;23.33;;;6.97;;
51854;SDS011;37895;53.240;6.572;2023-05-27T05:14:51;20.00;;;6.35;;
51854;SDS011;37895;53.240;6.572;2023-05-27T05:17:16;19.60;;;6.82;;
51854;SDS011;37895;53.240;6.572;2023-05-27T05:19:43;18.10;;;7.25;;
51854;SDS011;37895;53.240;6.572;2023-05-27T05:22:10;20.13;;;6.78;;
51854;SDS011;37895;53.240;6.572;2023-05-27T05:24:37;17.48;;;7.38;;
51854;SDS011;37895;53.240;6.572;2023-05-27T05:27:03;17.73;;;6.50;;
51854;SDS011;37895;53.240;6.572;2023-05-27T05:29:31;16.27;;;5.85;;
51854;SDS011;37895;53.240;6.572;2023-05-27T05:31:57;20.27;;;6.57;;
51854;SDS011;37895;53.240;6.572;2023-05-27T05:34:23;23.45;;;7.45;;
51854;SDS011;37895;53.240;6.572;2023-05-27T05:36:48;22.30;;;7.13;;
51854;SDS011;37895;53.240;6.572;2023-05-27T05:39:14;21.45;;;6.22;;
51854;SDS011;37895;53.240;6.572;2023-05-27T05:41:40;19.55;;;7.03;;
51854;SDS011;37895;53.240;6.572;2023-05-27T05:44:06;19.80;;;7.03;;
51854;SDS011;37895;53.240;6.572;2023-05-27T05:46:32;19.83;;;6.75;;
51854;SDS011;37895;53.240;6.572;2023-05-27T05:48:57;20.75;;;6.70;;
51854;SDS011;37895;53.240;6.572;2023-05-27T05:51:23;22.05;;;6.97;;
51854;SDS011;37895;53.240;6.572;2023-05-27T05:53:48;18.13;;;7.57;;
51854;SDS011;37895;53.240;6.572;2023-05-27T05:56:14;26.20;;;8.10;;
51854;SDS011;37895;53.240;6.572;2023-05-27T05:58:40;22.90;;;6.70;;
51854;SDS011;37895;53.240;6.572;2023-05-27T06:01:05;19.00;;;6.90;;
51854;SDS011;37895;53.240;6.572;2023-05-27T06:03:31;22.15;;;7.32;;
51854;SDS011;37895;53.240;6.572;2023-05-27T06:05:56;17.02;;;6.38;;
51854;SDS011;37895;53.240;6.572;2023-05-27T06:08:22;21.95;;;7.32;;
51854;SDS011;37895;53.240;6.572;2023-05-27T06:10:48;21.67;;;7.63;;
51854;SDS011;37895;53.240;6.572;2023-05-27T06:13:13;19.33;;;6.43;;
51854;SDS011;37895;53.240;6.572;2023-05-27T06:15:39;24.88;;;7.25;;
51854;SDS011;37895;53.240;6.572;2023-05-27T06:18:05;18.55;;;6.72;;
51854;SDS011;37895;53.240;6.572;2023-05-27T06:20:30;19.23;;;6.93;;
51854;SDS011;37895;53.240;6.572;2023-05-27T06:22:56;17.60;;;6.45;;
51854;SDS011;37895;53.240;6.572;2023-05-27T06:25:22;36.15;;;7.30;;
51854;SDS011;37895;53.240;6.572;2023-05-27T06:27:47;23.02;;;7.15;;
51854;SDS011;37895;53.240;6.572;2023-05-27T06:30:13;20.60;;;6.78;;
51854;SDS011;37895;53.240;6.572;2023-05-27T06:32:39;26.00;;;7.28;;
51854;SDS011;37895;53.240;6.572;2023-05-27T06:35:04;21.63;;;6.85;;
51854;SDS011;37895;53.240;6.572;2023-05-27T06:37:30;18.80;;;6.65;;
51854;SDS011;37895;53.240;6.572;2023-05-27T06:39:56;25.23;;;6.72;;
51854;SDS011;37895;53.240;6.572;2023-05-27T06:42:21;18.63;;;6.68;;
51854;SDS011;37895;53.240;6.572;2023-05-27T06:44:50;21.67;;;6.90;;
51854;SDS011;37895;53.240;6.572;2023-05-27T06:47:15;19.50;;;6.43;;
51854;SDS011;37895;53.240;6.572;2023-05-27T06:49:41;21.98;;;6.97;;
51854;SDS011;37895;53.240;6.572;2023-05-27T06:52:07;20.80;;;6.78;;
51854;SDS011;37895;53.240;6.572;2023-05-27T06:54:32;22.13;;;6.77;;
51854;SDS011;37895;53.240;6.572;2023-05-27T06:56:58;21.77;;;7.00;;
51854;SDS011;37895;53.240;6.572;2023-05-27T07:01:50;24.30;;;7.03;;
51854;SDS011;37895;53.240;6.572;2023-05-27T07:04:16;21.05;;;7.18;;
51854;SDS011;37895;53.240;6.572;2023-05-27T07:06:42;21.95;;;6.40;;
51854;SDS011;37895;53.240;6.572;2023-05-27T07:09:08;20.98;;;7.22;;
51854;SDS011;37895;53.240;6.572;2023-05-27T07:11:34;20.35;;;7.10;;
51854;SDS011;37895;53.240;6.572;2023-05-27T07:14:00;22.38;;;7.47;;
51854;SDS011;37895;53.240;6.572;2023-05-27T07:16:26;23.45;;;6.80;;
51854;SDS011;37895;53.240;6.572;2023-05-27T07:18:51;26.70;;;7.25;;
51854;SDS011;37895;53.240;6.572;2023-05-27T07:21:17;18.75;;;6.28;;
51854;SDS011;37895;53.240;6.572;2023-05-27T07:23:43;22.95;;;7.00;;
51854;SDS011;37895;53.240;6.572;2023-05-27T07:26:08;21.48;;;7.03;;
51854;SDS011;37895;53.240;6.572;2023-05-27T07:28:34;16.08;;;6.18;;
51854;SDS011;37895;53.240;6.572;2023-05-27T07:31:00;21.75;;;6.97;;
51854;SDS011;37895;53.240;6.572;2023-05-27T07:33:26;17.95;;;7.03;;
51854;SDS011;37895;53.240;6.572;2023-05-27T07:35:51;18.55;;;6.32;;
51854;SDS011;37895;53.240;6.572;2023-05-27T07:38:17;24.83;;;7.32;;
51854;SDS011;37895;53.240;6.572;2023-05-27T07:40:44;20.02;;;7.72;;
51854;SDS011;37895;53.240;6.572;2023-05-27T07:43:10;20.25;;;6.20;;
51854;SDS011;37895;53.240;6.572;2023-05-27T07:45:36;20.50;;;6.65;;
51854;SDS011;37895;53.240;6.572;2023-05-27T07:48:01;22.85;;;7.38;;
51854;SDS011;37895;53.240;6.572;2023-05-27T07:50:27;19.58;;;7.32;;
51854;SDS011;37895;53.240;6.572;2023-05-27T07:52:52;21.92;;;7.07;;
51854;SDS011;37895;53.240;6.572;2023-05-27T07:55:19;21.40;;;6.65;;
51854;SDS011;37895;53.240;6.572;2023-05-27T07:57:45;20.77;;;7.50;;
51854;SDS011;37895;53.240;6.572;2023-05-27T08:00:11;20.58;;;7.75;;
51854;SDS011;37895;53.240;6.572;2023-05-27T08:05:03;19.15;;;7.25;;
51854;SDS011;37895;53.240;6.572;2023-05-27T08:07:29;20.23;;;7.43;;
51854;SDS011;37895;53.240;6.572;2023-05-27T08:09:55;23.10;;;7.70;;
51854;SDS011;37895;53.240;6.572;2023-05-27T08:12:21;18.25;;;6.70;;
51854;SDS011;37895;53.240;6.572;2023-05-27T08:14:48;20.58;;;7.35;;
51854;SDS011;37895;53.240;6.572;2023-05-27T08:17:14;18.60;;;7.15;;
51854;SDS011;37895;53.240;6.572;2023-05-27T08:19:40;18.00;;;6.47;;
51854;SDS011;37895;53.240;6.572;2023-05-27T08:22:06;20.65;;;7.05;;
51854;SDS011;37895;53.240;6.572;2023-05-27T08:24:34;21.17;;;6.88;;
51854;SDS011;37895;53.240;6.572;2023-05-27T08:27:00;19.77;;;8.05;;
51854;SDS011;37895;53.240;6.572;2023-05-27T08:29:27;18.02;;;6.60;;
51854;SDS011;37895;53.240;6.572;2023-05-27T08:31:57;18.83;;;7.85;;
51854;SDS011;37895;53.240;6.572;2023-05-27T08:34:23;17.38;;;5.90;;
51854;SDS011;37895;53.240;6.572;2023-05-27T08:36:50;22.55;;;6.78;;
51854;SDS011;37895;53.240;6.572;2023-05-27T08:39:16;17.52;;;6.60;;
51854;SDS011;37895;53.240;6.572;2023-05-27T08:41:42;17.52;;;6.57;;
51854;SDS011;37895;53.240;6.572;2023-05-27T08:44:08;19.42;;;6.55;;
51854;SDS011;37895;53.240;6.572;2023-05-27T08:46:34;21.70;;;6.68;;
51854;SDS011;37895;53.240;6.572;2023-05-27T08:49:01;18.42;;;6.95;;
51854;SDS011;37895;53.240;6.572;2023-05-27T08:51:27;23.58;;;7.07;;
51854;SDS011;37895;53.240;6.572;2023-05-27T08:53:53;20.40;;;7.38;;
51854;SDS011;37895;53.240;6.572;2023-05-27T08:56:19;18.45;;;6.25;;
51854;SDS011;37895;53.240;6.572;2023-05-27T08:58:46;23.40;;;6.65;;
51854;SDS011;37895;53.240;6.572;2023-05-27T09:01:13;16.35;;;7.03;;
51854;SDS011;37895;53.240;6.572;2023-05-27T09:03:42;17.52;;;6.32;;
51854;SDS011;37895;53.240;6.572;2023-05-27T09:06:08;20.08;;;6.57;;
51854;SDS011;37895;53.240;6.572;2023-05-27T09:08:34;15.10;;;6.35;;
51854;SDS011;37895;53.240;6.572;2023-05-27T09:11:00;19.92;;;6.18;;
51854;SDS011;37895;53.240;6.572;2023-05-27T09:13:30;19.75;;;6.63;;
51854;SDS011;37895;53.240;6.572;2023-05-27T09:18:29;17.58;;;6.75;;
51854;SDS011;37895;53.240;6.572;2023-05-27T09:20:56;16.58;;;6.28;;
51854;SDS011;37895;53.240;6.572;2023-05-27T09:23:22;18.92;;;6.55;;
51854;SDS011;37895;53.240;6.572;2023-05-27T09:25:48;19.42;;;7.13;;
51854;SDS011;37895;53.240;6.572;2023-05-27T09:30:50;16.23;;;6.03;;
51854;SDS011;37895;53.240;6.572;2023-05-27T09:33:25;18.20;;;6.57;;
51854;SDS011;37895;53.240;6.572;2023-05-27T09:35:51;18.25;;;6.20;;
51854;SDS011;37895;53.240;6.572;2023-05-27T09:38:17;17.25;;;5.85;;
51854;SDS011;37895;53.240;6.572;2023-05-27T09:40:46;17.95;;;5.53;;
51854;SDS011;37895;53.240;6.572;2023-05-27T09:43:14;20.60;;;6.28;;
51854;SDS011;37895;53.240;6.572;2023-05-27T09:45:43;16.77;;;6.55;;
51854;SDS011;37895;53.240;6.572;2023-05-27T09:48:10;16.65;;;6.07;;
51854;SDS011;37895;53.240;6.572;2023-05-27T09:50:37;17.88;;;6.30;;
51854;SDS011;37895;53.240;6.572;2023-05-27T09:53:05;20.85;;;6.38;;
51854;SDS011;37895;53.240;6.572;2023-05-27T09:55:32;20.90;;;6.53;;
51854;SDS011;37895;53.240;6.572;2023-05-27T09:57:58;18.20;;;7.60;;
51854;SDS011;37895;53.240;6.572;2023-05-27T10:00:25;15.45;;;6.35;;
51854;SDS011;37895;53.240;6.572;2023-05-27T10:02:52;17.92;;;6.15;;
51854;SDS011;37895;53.240;6.572;2023-05-27T10:05:22;14.68;;;6.13;;
51854;SDS011;37895;53.240;6.572;2023-05-27T10:07:48;17.90;;;6.60;;
51854;SDS011;37895;53.240;6.572;2023-05-27T10:10:17;16.98;;;6.93;;
51854;SDS011;37895;53.240;6.572;2023-05-27T10:12:44;15.38;;;6.13;;
51854;SDS011;37895;53.240;6.572;2023-05-27T10:15:24;16.33;;;6.45;;
51854;SDS011;37895;53.240;6.572;2023-05-27T10:17:56;18.70;;;7.00;;
51854;SDS011;37895;53.240;6.572;2023-05-27T10:20:34;21.88;;;6.10;;
51854;SDS011;37895;53.240;6.572;2023-05-27T10:23:14;18.92;;;6.90;;
51854;SDS011;37895;53.240;6.572;2023-05-27T10:31:03;24.00;;;7.25;;
51854;SDS011;37895;53.240;6.572;2023-05-27T10:33:30;18.45;;;6.50;;
51854;SDS011;37895;53.240;6.572;2023-05-27T10:36:08;18.20;;;6.82;;
51854;SDS011;37895;53.240;6.572;2023-05-27T10:38:35;17.75;;;6.40;;
51854;SDS011;37895;53.240;6.572;2023-05-27T10:41:01;20.83;;;7.05;;
51854;SDS011;37895;53.240;6.572;2023-05-27T10:43:29;17.73;;;7.25;;
51854;SDS011;37895;53.240;6.572;2023-05-27T10:46:37;20.48;;;6.60;;
51854;SDS011;37895;53.240;6.572;2023-05-27T10:48:47;19.33;;;7.22;;
51854;SDS011;37895;53.240;6.572;2023-05-27T10:51:13;21.70;;;6.60;;
51854;SDS011;37895;53.240;6.572;2023-05-27T10:53:38;23.20;;;7.63;;
51854;SDS011;37895;53.240;6.572;2023-05-27T10:56:04;15.88;;;6.20;;
51854;SDS011;37895;53.240;6.572;2023-05-27T10:58:34;18.60;;;6.75;;
51854;SDS011;37895;53.240;6.572;2023-05-27T11:01:08;17.08;;;6.70;;
51854;SDS011;37895;53.240;6.572;2023-05-27T11:03:40;20.33;;;6.72;;
51854;SDS011;37895;53.240;6.572;2023-05-27T11:06:08;17.95;;;7.28;;
51854;SDS011;37895;53.240;6.572;2023-05-27T11:08:36;18.88;;;6.03;;
51854;SDS011;37895;53.240;6.572;2023-05-27T11:16:01;15.13;;;5.85;;
51854;SDS011;37895;53.240;6.572;2023-05-27T11:18:38;22.92;;;7.60;;
51854;SDS011;37895;53.240;6.572;2023-05-27T11:21:09;14.88;;;6.22;;
51854;SDS011;37895;53.240;6.572;2023-05-27T11:26:04;15.15;;;6.25;;
51854;SDS011;37895;53.240;6.572;2023-05-27T11:28:35;18.13;;;6.40;;
51854;SDS011;37895;53.240;6.572;2023-05-27T11:31:04;14.43;;;5.75;;
51854;SDS011;37895;53.240;6.572;2023-05-27T11:33:32;17.95;;;5.80;;
51854;SDS011;37895;53.240;6.572;2023-05-27T11:36:05;15.90;;;5.53;;
51854;SDS011;37895;53.240;6.572;2023-05-27T11:38:31;14.63;;;6.63;;
51854;SDS011;37895;53.240;6.572;2023-05-27T11:41:07;15.73;;;6.88;;
51854;SDS011;37895;53.240;6.572;2023-05-27T11:43:33;15.02;;;5.80;;
51854;SDS011;37895;53.240;6.572;2023-05-27T11:46:03;21.20;;;6.53;;
51854;SDS011;37895;53.240;6.572;2023-05-27T11:48:28;14.98;;;7.13;;
51854;SDS011;37895;53.240;6.572;2023-05-27T11:50:54;17.20;;;6.55;;
51854;SDS011;37895;53.240;6.572;2023-05-27T11:53:20;14.48;;;5.72;;
51854;SDS011;37895;53.240;6.572;2023-05-27T11:55:45;14.93;;;5.85;;
51854;SDS011;37895;53.240;6.572;2023-05-27T11:58:11;13.60;;;5.63;;
51854;SDS011;37895;53.240;6.572;2023-05-27T12:00:37;13.77;;;5.60;;
51854;SDS011;37895;53.240;6.572;2023-05-27T12:03:02;15.27;;;6.03;;
51854;SDS011;37895;53.240;6.572;2023-05-27T12:05:28;17.55;;;6.20;;
51854;SDS011;37895;53.240;6.572;2023-05-27T12:07:53;17.17;;;6.43;;
51854;SDS011;37895;53.240;6.572;2023-05-27T12:10:19;16.42;;;6.35;;
51854;SDS011;37895;53.240;6.572;2023-05-27T12:12:45;15.32;;;6.32;;
51854;SDS011;37895;53.240;6.572;2023-05-27T12:15:10;15.98;;;6.63;;
51854;SDS011;37895;53.240;6.572;2023-05-27T12:17:36;13.45;;;6.40;;
51854;SDS011;37895;53.240;6.572;2023-05-27T12:20:02;16.65;;;6.03;;
51854;SDS011;37895;53.240;6.572;2023-05-27T12:22:31;15.55;;;5.75;;
51854;SDS011;37895;53.240;6.572;2023-05-27T12:24:56;17.67;;;6.47;;
51854;SDS011;37895;53.240;6.572;2023-05-27T12:27:22;15.05;;;6.03;;
51854;SDS011;37895;53.240;6.572;2023-05-27T12:29:47;13.57;;;5.25;;
51854;SDS011;37895;53.240;6.572;2023-05-27T12:32:13;12.63;;;5.40;;
51854;SDS011;37895;53.240;6.572;2023-05-27T12:34:39;14.55;;;5.70;;
51854;SDS011;37895;53.240;6.572;2023-05-27T12:37:05;18.77;;;5.75;;
51854;SDS011;37895;53.240;6.572;2023-05-27T12:39:30;13.82;;;5.60;;
51854;SDS011;37895;53.240;6.572;2023-05-27T12:41:56;13.85;;;5.82;;
51854;SDS011;37895;53.240;6.572;2023-05-27T12:44:22;16.13;;;5.82;;
51854;SDS011;37895;53.240;6.572;2023-05-27T12:46:47;16.20;;;6.28;;
51854;SDS011;37895;53.240;6.572;2023-05-27T12:49:13;14.98;;;6.20;;
51854;SDS011;37895;53.240;6.572;2023-05-27T12:51:38;15.77;;;6.43;;
51854;SDS011;37895;53.240;6.572;2023-05-27T12:56:30;21.80;;;6.75;;
51854;SDS011;37895;53.240;6.572;2023-05-27T12:58:56;14.75;;;5.45;;
51854;SDS011;37895;53.240;6.572;2023-05-27T13:01:21;18.75;;;6.60;;
51854;SDS011;37895;53.240;6.572;2023-05-27T13:03:47;16.88;;;6.63;;
51854;SDS011;37895;53.240;6.572;2023-05-27T13:06:12;17.92;;;6.15;;
51854;SDS011;37895;53.240;6.572;2023-05-27T13:08:38;18.77;;;6.18;;
51854;SDS011;37895;53.240;6.572;2023-05-27T13:11:04;17.75;;;6.00;;
51854;SDS011;37895;53.240;6.572;2023-05-27T13:13:29;18.75;;;5.90;;
51854;SDS011;37895;53.240;6.572;2023-05-27T13:15:55;19.88;;;6.47;;
51854;SDS011;37895;53.240;6.572;2023-05-27T13:18:22;15.65;;;5.95;;
51854;SDS011;37895;53.240;6.572;2023-05-27T13:20:48;14.10;;;5.97;;
51854;SDS011;37895;53.240;6.572;2023-05-27T13:25:39;15.50;;;6.30;;
51854;SDS011;37895;53.240;6.572;2023-05-27T13:28:05;12.43;;;5.50;;
51854;SDS011;37895;53.240;6.572;2023-05-27T13:30:31;21.38;;;6.28;;
51854;SDS011;37895;53.240;6.572;2023-05-27T13:32:56;16.08;;;6.43;;
51854;SDS011;37895;53.240;6.572;2023-05-27T13:37:48;15.90;;;5.63;;
51854;SDS011;37895;53.240;6.572;2023-05-27T13:40:13;14.57;;;5.53;;
51854;SDS011;37895;53.240;6.572;2023-05-27T13:42:39;15.48;;;6.03;;
51854;SDS011;37895;53.240;6.572;2023-05-27T13:45:06;12.80;;;5.50;;
51854;SDS011;37895;53.240;6.572;2023-05-27T13:47:34;14.75;;;5.82;;
51854;SDS011;37895;53.240;6.572;2023-05-27T13:52:25;16.05;;;6.07;;
51854;SDS011;37895;53.240;6.572;2023-05-27T13:54:51;13.23;;;5.40;;
51854;SDS011;37895;53.240;6.572;2023-05-27T13:59:42;14.43;;;5.00;;
51854;SDS011;37895;53.240;6.572;2023-05-27T14:04:34;14.70;;;5.93;;
51854;SDS011;37895;53.240;6.572;2023-05-27T14:09:25;20.45;;;6.75;;
51854;SDS011;37895;53.240;6.572;2023-05-27T14:14:16;17.13;;;5.85;;
51854;SDS011;37895;53.240;6.572;2023-05-27T14:16:42;21.50;;;5.80;;
51854;SDS011;37895;53.240;6.572;2023-05-27T14:21:33;18.05;;;5.82;;
51854;SDS011;37895;53.240;6.572;2023-05-27T14:26:25;19.25;;;6.07;;
51854;SDS011;37895;53.240;6.572;2023-05-27T14:28:51;18.83;;;5.93;;
51854;SDS011;37895;53.240;6.572;2023-05-27T14:33:43;22.27;;;6.75;;
51854;SDS011;37895;53.240;6.572;2023-05-27T14:36:09;18.15;;;5.70;;
51854;SDS011;37895;53.240;6.572;2023-05-27T14:38:35;19.80;;;5.85;;
51854;SDS011;37895;53.240;6.572;2023-05-27T14:43:26;19.98;;;6.28;;
51854;SDS011;37895;53.240;6.572;2023-05-27T14:45:52;17.15;;;5.40;;
51854;SDS011;37895;53.240;6.572;2023-05-27T14:50:44;22.17;;;6.57;;
51854;SDS011;37895;53.240;6.572;2023-05-27T14:53:10;20.33;;;5.95;;
51854;SDS011;37895;53.240;6.572;2023-05-27T14:55:35;15.77;;;5.88;;
51854;SDS011;37895;53.240;6.572;2023-05-27T14:58:01;20.63;;;6.78;;
51854;SDS011;37895;53.240;6.572;2023-05-27T15:00:31;18.40;;;6.18;;
51854;SDS011;37895;53.240;6.572;2023-05-27T15:05:23;24.58;;;6.28;;
51854;SDS011;37895;53.240;6.572;2023-05-27T15:14:33;18.77;;;5.57;;
51854;SDS011;37895;53.240;6.572;2023-05-27T15:16:59;22.38;;;6.68;;
51854;SDS011;37895;53.240;6.572;2023-05-27T15:19:24;21.73;;;6.55;;
51854;SDS011;37895;53.240;6.572;2023-05-27T15:21:50;16.48;;;5.35;;
51854;SDS011;37895;53.240;6.572;2023-05-27T15:24:15;23.95;;;7.50;;
51854;SDS011;37895;53.240;6.572;2023-05-27T15:29:06;18.65;;;6.45;;
51854;SDS011;37895;53.240;6.572;2023-05-27T15:31:32;16.27;;;6.03;;
51854;SDS011;37895;53.240;6.572;2023-05-27T15:33:58;21.15;;;6.30;;
51854;SDS011;37895;53.240;6.572;2023-05-27T15:36:23;16.33;;;5.88;;
51854;SDS011;37895;53.240;6.572;2023-05-27T15:38:49;20.63;;;5.88;;
51854;SDS011;37895;53.240;6.572;2023-05-27T15:41:14;19.63;;;6.35;;
51854;SDS011;37895;53.240;6.572;2023-05-27T15:43:40;18.15;;;5.22;;
51854;SDS011;37895;53.240;6.572;2023-05-27T15:46:06;20.95;;;5.72;;
51854;SDS011;37895;53.240;6.572;2023-05-27T15:48:31;16.48;;;5.68;;